Hauptseite
METAR-TAF:

METAR-TAF

Flughäfen :

Fort Meade, Maryland, Vereinigte Staaten

Breite: 39-05N, Länge: 076-46W, Höhe: 46 m

Beobachtung

Neuester Wetterbericht von vor 17 Minuten, um 21:03 UTC
Wind 13 kt aus Nord/Nordwest, Böen bis zu 17 kt
Temperatur 16°C
Luftfeuchtigkeit 36%
Luftdruck 1009 hPa
Sichtweite: 16.1 km
Geschlossene Wolkendecke in der Höhe von 6500 ft

METAR: KFME 032103Z AUTO 34013G17KT 10SM OVC065 16/01 A2980 RMK AO1

Zeit: 17:20 (21:20 UTC)


TAF: fehlend

Wetterbeobachtungen und Prognosen von mehr als 4000 Flughäfen (METAR und TAF Bericht).

Die verfügbaren Stationen werden durch gelbe und rote Markierungen auf der Karte dargestellt.

Führen Sie die Maus auf sie, um den Namen der Station zu sehen.

Darauf klicken, um die Beobachtung von Wetterbeobachtungen und Prognosen zu sehen.

Um die Karte zu ändern : klicken Sie auf den grünen Tasten mit einem schwarzen Kreuz Zum Vergrößern, auf den grünen Button mit einem Gedankenstrich zu verkleinern, oder auf die grünen Pfeile für benachbarte Karten.


METAR-TAF: